sensor_id;sensor_type;location;lat;lon;timestamp;pressure;altitude;pressure_sealevel;temperature;humidity
16793;BME280;8513;42.662;23.350;2022-12-07T00:00:29;94900.78;;;7.34;66.17
16793;BME280;8513;42.662;23.350;2022-12-07T00:02:55;94895.53;;;7.34;66.07
16793;BME280;8513;42.662;23.350;2022-12-07T00:05:20;94899.28;;;7.41;65.71
16793;BME280;8513;42.662;23.350;2022-12-07T00:07:46;94900.94;;;7.42;65.59
16793;BME280;8513;42.662;23.350;2022-12-07T00:10:11;94896.38;;;7.35;65.90
16793;BME280;8513;42.662;23.350;2022-12-07T00:12:36;94896.78;;;7.40;65.62
16793;BME280;8513;42.662;23.350;2022-12-07T00:15:02;94892.81;;;7.45;65.52
16793;BME280;8513;42.662;23.350;2022-12-07T00:17:28;94890.34;;;7.44;65.44
16793;BME280;8513;42.662;23.350;2022-12-07T00:19:53;94889.25;;;7.46;65.45
16793;BME280;8513;42.662;23.350;2022-12-07T00:22:18;94887.44;;;7.37;65.59
16793;BME280;8513;42.662;23.350;2022-12-07T00:24:44;94890.88;;;7.47;65.25
16793;BME280;8513;42.662;23.350;2022-12-07T00:27:09;94891.88;;;7.46;65.48
16793;BME280;8513;42.662;23.350;2022-12-07T00:29:35;94890.34;;;7.44;65.75
16793;BME280;8513;42.662;23.350;2022-12-07T00:32:02;94889.94;;;7.48;65.60
16793;BME280;8513;42.662;23.350;2022-12-07T00:34:28;94887.56;;;7.45;65.56
16793;BME280;8513;42.662;23.350;2022-12-07T00:36:53;94897.91;;;7.47;65.14
16793;BME280;8513;42.662;23.350;2022-12-07T00:39:19;94899.97;;;7.53;65.18
16793;BME280;8513;42.662;23.350;2022-12-07T00:41:44;94902.06;;;7.49;65.40
16793;BME280;8513;42.662;23.350;2022-12-07T00:44:10;94889.66;;;7.42;65.23
16793;BME280;8513;42.662;23.350;2022-12-07T00:46:35;94885.81;;;7.46;65.36
16793;BME280;8513;42.662;23.350;2022-12-07T00:49:00;94888.97;;;7.49;65.14
16793;BME280;8513;42.662;23.350;2022-12-07T00:51:26;94884.72;;;7.48;65.18
16793;BME280;8513;42.662;23.350;2022-12-07T00:53:52;94887.44;;;7.47;65.22
16793;BME280;8513;42.662;23.350;2022-12-07T00:56:21;94884.38;;;7.22;66.08
16793;BME280;8513;42.662;23.350;2022-12-07T00:58:52;94878.22;;;7.33;65.83
16793;BME280;8513;42.662;23.350;2022-12-07T01:01:17;94884.13;;;7.25;65.79
16793;BME280;8513;42.662;23.350;2022-12-07T01:03:43;94878.06;;;7.25;66.26
16793;BME280;8513;42.662;23.350;2022-12-07T01:06:08;94885.63;;;7.28;66.06
16793;BME280;8513;42.662;23.350;2022-12-07T01:08:34;94886.88;;;7.34;65.85
16793;BME280;8513;42.662;23.350;2022-12-07T01:11:04;94877.75;;;7.09;66.73
16793;BME280;8513;42.662;23.350;2022-12-07T01:13:31;94884.47;;;6.71;68.46
16793;BME280;8513;42.662;23.350;2022-12-07T01:15:59;94881.31;;;7.07;67.54
16793;BME280;8513;42.662;23.350;2022-12-07T01:18:28;94874.88;;;7.12;67.09
16793;BME280;8513;42.662;23.350;2022-12-07T01:21:22;94878.84;;;6.66;68.98
16793;BME280;8513;42.662;23.350;2022-12-07T01:23:49;94872.69;;;6.76;68.30
16793;BME280;8513;42.662;23.350;2022-12-07T01:26:17;94867.28;;;6.68;68.76
16793;BME280;8513;42.662;23.350;2022-12-07T01:28:44;94866.13;;;6.92;68.07
16793;BME280;8513;42.662;23.350;2022-12-07T01:31:15;94859.00;;;6.94;67.75
16793;BME280;8513;42.662;23.350;2022-12-07T01:33:42;94863.97;;;7.06;67.44
16793;BME280;8513;42.662;23.350;2022-12-07T01:38:42;94859.19;;;7.12;67.51
16793;BME280;8513;42.662;23.350;2022-12-07T01:41:08;94866.72;;;7.05;67.78
16793;BME280;8513;42.662;23.350;2022-12-07T01:43:34;94865.22;;;7.12;67.31
16793;BME280;8513;42.662;23.350;2022-12-07T01:46:00;94867.72;;;7.14;67.21
16793;BME280;8513;42.662;23.350;2022-12-07T01:48:40;94879.28;;;7.21;67.16
16793;BME280;8513;42.662;23.350;2022-12-07T01:51:11;94872.53;;;7.18;66.66
16793;BME280;8513;42.662;23.350;2022-12-07T01:53:43;94863.59;;;7.11;66.85
16793;BME280;8513;42.662;23.350;2022-12-07T01:56:12;94862.75;;;7.11;66.88
16793;BME280;8513;42.662;23.350;2022-12-07T01:58:42;94857.94;;;7.16;66.59
16793;BME280;8513;42.662;23.350;2022-12-07T02:01:08;94858.63;;;7.18;66.93
16793;BME280;8513;42.662;23.350;2022-12-07T02:03:40;94845.53;;;7.08;66.83
16793;BME280;8513;42.662;23.350;2022-12-07T02:06:08;94836.63;;;7.20;66.42
16793;BME280;8513;42.662;23.350;2022-12-07T02:08:35;94843.91;;;7.17;66.88
16793;BME280;8513;42.662;23.350;2022-12-07T02:11:02;94844.31;;;7.12;67.17
16793;BME280;8513;42.662;23.350;2022-12-07T02:13:31;94847.19;;;7.09;67.31
16793;BME280;8513;42.662;23.350;2022-12-07T02:21:24;94848.56;;;7.13;66.94
16793;BME280;8513;42.662;23.350;2022-12-07T02:24:22;94850.13;;;7.25;66.68
16793;BME280;8513;42.662;23.350;2022-12-07T02:27:05;94849.41;;;7.23;66.51
16793;BME280;8513;42.662;23.350;2022-12-07T02:29:37;94848.44;;;7.15;67.37
16793;BME280;8513;42.662;23.350;2022-12-07T02:32:18;94839.19;;;7.11;67.49
16793;BME280;8513;42.662;23.350;2022-12-07T02:34:59;94828.50;;;7.14;67.35
16793;BME280;8513;42.662;23.350;2022-12-07T02:40:14;94832.91;;;7.23;66.89
16793;BME280;8513;42.662;23.350;2022-12-07T02:42:49;94829.31;;;7.14;66.98
16793;BME280;8513;42.662;23.350;2022-12-07T02:45:20;94840.59;;;7.15;67.18
16793;BME280;8513;42.662;23.350;2022-12-07T02:47:48;94837.28;;;7.13;67.17
16793;BME280;8513;42.662;23.350;2022-12-07T02:50:19;94836.44;;;7.02;67.71
16793;BME280;8513;42.662;23.350;2022-12-07T02:52:45;94847.75;;;7.13;67.40
16793;BME280;8513;42.662;23.350;2022-12-07T02:55:11;94837.81;;;6.97;67.64
16793;BME280;8513;42.662;23.350;2022-12-07T03:00:18;94827.34;;;6.97;68.10
16793;BME280;8513;42.662;23.350;2022-12-07T03:03:06;94825.97;;;7.02;67.64
16793;BME280;8513;42.662;23.350;2022-12-07T03:05:57;94825.44;;;6.99;67.81
16793;BME280;8513;42.662;23.350;2022-12-07T03:11:40;94813.56;;;6.95;67.58
16793;BME280;8513;42.662;23.350;2022-12-07T03:14:23;94808.47;;;6.83;68.17
16793;BME280;8513;42.662;23.350;2022-12-07T03:17:03;94804.75;;;6.76;68.27
16793;BME280;8513;42.662;23.350;2022-12-07T03:19:32;94810.00;;;6.86;67.76
16793;BME280;8513;42.662;23.350;2022-12-07T03:22:05;94814.41;;;6.85;67.54
16793;BME280;8513;42.662;23.350;2022-12-07T03:24:41;94813.00;;;6.81;67.83
16793;BME280;8513;42.662;23.350;2022-12-07T03:27:13;94815.75;;;6.80;67.86
16793;BME280;8513;42.662;23.350;2022-12-07T03:29:45;94809.13;;;6.76;67.79
16793;BME280;8513;42.662;23.350;2022-12-07T03:32:25;94814.41;;;6.85;67.66
16793;BME280;8513;42.662;23.350;2022-12-07T03:35:10;94814.03;;;6.59;68.66
16793;BME280;8513;42.662;23.350;2022-12-07T03:40:32;94819.25;;;6.59;69.12
16793;BME280;8513;42.662;23.350;2022-12-07T03:43:00;94818.31;;;6.60;69.05
16793;BME280;8513;42.662;23.350;2022-12-07T03:48:42;94811.59;;;6.68;68.57
16793;BME280;8513;42.662;23.350;2022-12-07T03:51:22;94812.41;;;6.68;68.47
16793;BME280;8513;42.662;23.350;2022-12-07T03:53:56;94816.06;;;6.46;68.69
16793;BME280;8513;42.662;23.350;2022-12-07T03:56:25;94806.31;;;6.48;69.09
16793;BME280;8513;42.662;23.350;2022-12-07T03:58:53;94808.97;;;6.68;68.90
16793;BME280;8513;42.662;23.350;2022-12-07T04:01:19;94805.41;;;6.69;68.20
16793;BME280;8513;42.662;23.350;2022-12-07T04:03:44;94801.94;;;6.58;68.52
16793;BME280;8513;42.662;23.350;2022-12-07T04:06:10;94803.41;;;6.42;69.03
16793;BME280;8513;42.662;23.350;2022-12-07T04:08:36;94794.66;;;6.52;68.89
16793;BME280;8513;42.662;23.350;2022-12-07T04:11:02;94795.91;;;6.58;68.94
16793;BME280;8513;42.662;23.350;2022-12-07T04:13:27;94801.94;;;6.58;68.50
16793;BME280;8513;42.662;23.350;2022-12-07T04:15:53;94801.13;;;6.58;68.73
16793;BME280;8513;42.662;23.350;2022-12-07T04:18:18;94800.84;;;6.61;68.49
16793;BME280;8513;42.662;23.350;2022-12-07T04:20:45;94794.94;;;6.59;68.25
16793;BME280;8513;42.662;23.350;2022-12-07T04:23:11;94799.44;;;6.57;68.64
16793;BME280;8513;42.662;23.350;2022-12-07T04:25:36;94794.81;;;6.60;68.21
16793;BME280;8513;42.662;23.350;2022-12-07T04:28:02;94811.97;;;6.53;67.99
16793;BME280;8513;42.662;23.350;2022-12-07T04:30:27;94800.00;;;6.51;68.69
16793;BME280;8513;42.662;23.350;2022-12-07T04:32:53;94798.47;;;6.48;68.79
16793;BME280;8513;42.662;23.350;2022-12-07T04:35:18;94806.63;;;6.65;68.35
16793;BME280;8513;42.662;23.350;2022-12-07T04:37:43;94802.34;;;6.54;68.18
16793;BME280;8513;42.662;23.350;2022-12-07T04:40:10;94797.81;;;6.56;68.37
16793;BME280;8513;42.662;23.350;2022-12-07T04:42:37;94806.03;;;6.51;68.27
16793;BME280;8513;42.662;23.350;2022-12-07T04:45:02;94803.97;;;6.45;68.48
16793;BME280;8513;42.662;23.350;2022-12-07T04:47:28;94812.19;;;6.40;68.71
16793;BME280;8513;42.662;23.350;2022-12-07T04:49:53;94816.31;;;6.43;68.53
16793;BME280;8513;42.662;23.350;2022-12-07T04:52:19;94820.56;;;6.44;68.42
16793;BME280;8513;42.662;23.350;2022-12-07T04:54:44;94810.53;;;6.39;68.36
16793;BME280;8513;42.662;23.350;2022-12-07T04:57:10;94814.25;;;6.37;68.62
16793;BME280;8513;42.662;23.350;2022-12-07T04:59:35;94808.63;;;6.42;68.32
16793;BME280;8513;42.662;23.350;2022-12-07T05:02:01;94813.41;;;6.36;68.35
16793;BME280;8513;42.662;23.350;2022-12-07T05:04:26;94812.94;;;6.22;68.66
16793;BME280;8513;42.662;23.350;2022-12-07T05:06:51;94803.91;;;6.26;68.91
16793;BME280;8513;42.662;23.350;2022-12-07T05:09:17;94818.06;;;6.33;69.07
16793;BME280;8513;42.662;23.350;2022-12-07T05:11:42;94817.44;;;6.19;69.58
16793;BME280;8513;42.662;23.350;2022-12-07T05:14:18;94815.75;;;6.39;68.90
16793;BME280;8513;42.662;23.350;2022-12-07T05:16:46;94820.66;;;6.33;68.75
16793;BME280;8513;42.662;23.350;2022-12-07T05:19:12;94823.00;;;6.36;68.44
16793;BME280;8513;42.662;23.350;2022-12-07T05:21:38;94822.16;;;6.26;69.01
16793;BME280;8513;42.662;23.350;2022-12-07T05:24:04;94813.91;;;6.30;68.63
16793;BME280;8513;42.662;23.350;2022-12-07T05:26:31;94805.44;;;6.07;69.23
16793;BME280;8513;42.662;23.350;2022-12-07T05:28:57;94809.50;;;6.21;69.13
16793;BME280;8513;42.662;23.350;2022-12-07T05:31:23;94818.84;;;5.82;70.12
16793;BME280;8513;42.662;23.350;2022-12-07T05:33:49;94810.19;;;5.81;70.91
16793;BME280;8513;42.662;23.350;2022-12-07T05:36:14;94818.75;;;6.04;70.12
16793;BME280;8513;42.662;23.350;2022-12-07T05:38:40;94824.59;;;6.17;69.97
16793;BME280;8513;42.662;23.350;2022-12-07T05:41:07;94806.78;;;6.02;70.04
16793;BME280;8513;42.662;23.350;2022-12-07T05:43:53;94812.31;;;6.08;69.87
16793;BME280;8513;42.662;23.350;2022-12-07T05:46:18;94802.69;;;6.09;69.81
16793;BME280;8513;42.662;23.350;2022-12-07T05:48:44;94808.16;;;6.27;69.47
16793;BME280;8513;42.662;23.350;2022-12-07T05:51:09;94796.06;;;6.26;69.13
16793;BME280;8513;42.662;23.350;2022-12-07T05:53:34;94802.84;;;6.07;69.48
16793;BME280;8513;42.662;23.350;2022-12-07T05:56:00;94797.28;;;6.01;69.86
16793;BME280;8513;42.662;23.350;2022-12-07T05:58:25;94804.22;;;6.11;69.44
16793;BME280;8513;42.662;23.350;2022-12-07T06:01:09;94802.13;;;6.05;69.96
16793;BME280;8513;42.662;23.350;2022-12-07T06:03:35;94799.59;;;6.15;69.69
16793;BME280;8513;42.662;23.350;2022-12-07T06:06:00;94800.13;;;6.18;69.43
16793;BME280;8513;42.662;23.350;2022-12-07T06:08:26;94797.53;;;6.18;69.46
16793;BME280;8513;42.662;23.350;2022-12-07T06:10:51;94802.66;;;6.30;69.38
16793;BME280;8513;42.662;23.350;2022-12-07T06:13:36;94806.13;;;6.40;68.63
16793;BME280;8513;42.662;23.350;2022-12-07T06:16:02;94795.56;;;6.42;69.01
16793;BME280;8513;42.662;23.350;2022-12-07T06:18:27;94816.69;;;6.29;69.40
16793;BME280;8513;42.662;23.350;2022-12-07T06:20:53;94812.88;;;6.43;68.93
16793;BME280;8513;42.662;23.350;2022-12-07T06:23:18;94811.81;;;6.45;68.68
16793;BME280;8513;42.662;23.350;2022-12-07T06:25:45;94808.47;;;6.43;68.60
16793;BME280;8513;42.662;23.350;2022-12-07T06:28:11;94813.31;;;6.48;68.58
16793;BME280;8513;42.662;23.350;2022-12-07T06:30:36;94814.31;;;6.56;68.27
16793;BME280;8513;42.662;23.350;2022-12-07T06:33:02;94815.44;;;6.63;68.55
16793;BME280;8513;42.662;23.350;2022-12-07T06:35:27;94821.38;;;6.66;68.33
16793;BME280;8513;42.662;23.350;2022-12-07T06:37:52;94820.09;;;6.60;68.38
16793;BME280;8513;42.662;23.350;2022-12-07T06:40:18;94817.91;;;6.65;68.25
16793;BME280;8513;42.662;23.350;2022-12-07T06:42:43;94822.84;;;6.68;68.39
16793;BME280;8513;42.662;23.350;2022-12-07T06:45:09;94826.50;;;6.77;68.26
16793;BME280;8513;42.662;23.350;2022-12-07T06:47:34;94828.94;;;6.78;67.96
16793;BME280;8513;42.662;23.350;2022-12-07T06:50:00;94833.09;;;6.81;67.93
16793;BME280;8513;42.662;23.350;2022-12-07T06:52:25;94828.44;;;6.84;67.50
16793;BME280;8513;42.662;23.350;2022-12-07T06:54:51;94827.56;;;6.74;68.05
16793;BME280;8513;42.662;23.350;2022-12-07T06:57:16;94820.44;;;6.86;67.62
16793;BME280;8513;42.662;23.350;2022-12-07T06:59:42;94831.44;;;6.80;67.96
16793;BME280;8513;42.662;23.350;2022-12-07T07:02:08;94825.66;;;6.86;67.57
16793;BME280;8513;42.662;23.350;2022-12-07T07:04:34;94827.34;;;6.87;67.37
16793;BME280;8513;42.662;23.350;2022-12-07T07:06:59;94833.94;;;6.91;67.59
16793;BME280;8513;42.662;23.350;2022-12-07T07:09:25;94830.88;;;6.76;68.03
16793;BME280;8513;42.662;23.350;2022-12-07T07:11:51;94827.91;;;6.91;67.82
16793;BME280;8513;42.662;23.350;2022-12-07T07:14:16;94830.94;;;6.96;67.38
16793;BME280;8513;42.662;23.350;2022-12-07T07:16:44;94834.59;;;6.83;67.87
16793;BME280;8513;42.662;23.350;2022-12-07T07:19:09;94840.03;;;7.01;67.83
16793;BME280;8513;42.662;23.350;2022-12-07T07:21:36;94830.78;;;6.97;67.68
16793;BME280;8513;42.662;23.350;2022-12-07T07:24:01;94830.53;;;7.00;67.79
16793;BME280;8513;42.662;23.350;2022-12-07T07:26:27;94826.13;;;7.01;67.67
16793;BME280;8513;42.662;23.350;2022-12-07T07:28:52;94825.00;;;6.94;67.99
16793;BME280;8513;42.662;23.350;2022-12-07T07:31:18;94837.69;;;6.98;68.07
16793;BME280;8513;42.662;23.350;2022-12-07T07:33:45;94827.69;;;6.63;68.68
16793;BME280;8513;42.662;23.350;2022-12-07T07:36:11;94839.66;;;6.66;69.03
16793;BME280;8513;42.662;23.350;2022-12-07T07:38:36;94835.47;;;6.94;68.29
16793;BME280;8513;42.662;23.350;2022-12-07T07:41:02;94841.41;;;7.05;67.80
16793;BME280;8513;42.662;23.350;2022-12-07T07:43:27;94839.34;;;7.19;67.76
16793;BME280;8513;42.662;23.350;2022-12-07T07:45:53;94840.59;;;7.15;67.66
16793;BME280;8513;42.662;23.350;2022-12-07T07:48:18;94832.47;;;7.18;67.46
16793;BME280;8513;42.662;23.350;2022-12-07T07:50:43;94834.03;;;7.30;67.21
16793;BME280;8513;42.662;23.350;2022-12-07T07:53:09;94833.97;;;7.11;67.89
16793;BME280;8513;42.662;23.350;2022-12-07T07:55:35;94835.13;;;7.37;67.26
16793;BME280;8513;42.662;23.350;2022-12-07T07:58:00;94831.81;;;7.55;66.86
16793;BME280;8513;42.662;23.350;2022-12-07T08:00:25;94833.88;;;7.51;66.64
16793;BME280;8513;42.662;23.350;2022-12-07T08:02:51;94832.94;;;7.52;66.75
16793;BME280;8513;42.662;23.350;2022-12-07T08:05:16;94831.56;;;7.67;66.40
16793;BME280;8513;42.662;23.350;2022-12-07T08:07:42;94832.09;;;7.71;65.78
16793;BME280;8513;42.662;23.350;2022-12-07T08:10:11;94833.47;;;7.65;66.21
16793;BME280;8513;42.662;23.350;2022-12-07T08:12:41;94836.06;;;7.75;65.07
16793;BME280;8513;42.662;23.350;2022-12-07T08:15:29;94837.19;;;7.72;65.42
16793;BME280;8513;42.662;23.350;2022-12-07T08:17:55;94831.25;;;7.61;65.38
16793;BME280;8513;42.662;23.350;2022-12-07T08:20:21;94832.06;;;7.32;66.29
16793;BME280;8513;42.662;23.350;2022-12-07T08:22:47;94827.81;;;7.31;66.35
16793;BME280;8513;42.662;23.350;2022-12-07T08:25:12;94826.03;;;7.41;66.35
16793;BME280;8513;42.662;23.350;2022-12-07T08:27:37;94832.38;;;7.48;66.19
16793;BME280;8513;42.662;23.350;2022-12-07T08:30:03;94828.66;;;7.41;66.56
16793;BME280;8513;42.662;23.350;2022-12-07T08:32:29;94826.97;;;7.40;66.59
16793;BME280;8513;42.662;23.350;2022-12-07T08:34:54;94828.78;;;7.20;67.10
16793;BME280;8513;42.662;23.350;2022-12-07T08:37:20;94829.88;;;7.37;66.79
16793;BME280;8513;42.662;23.350;2022-12-07T08:39:45;94829.75;;;7.39;67.03
16793;BME280;8513;42.662;23.350;2022-12-07T08:42:11;94831.13;;;7.53;66.32
16793;BME280;8513;42.662;23.350;2022-12-07T08:44:36;94826.59;;;7.35;66.81
16793;BME280;8513;42.662;23.350;2022-12-07T08:47:04;94825.75;;;7.44;66.25
16793;BME280;8513;42.662;23.350;2022-12-07T08:49:41;94819.31;;;7.48;66.67
16793;BME280;8513;42.662;23.350;2022-12-07T08:52:07;94820.25;;;7.47;66.77
16793;BME280;8513;42.662;23.350;2022-12-07T08:54:35;94813.22;;;7.58;66.71
16793;BME280;8513;42.662;23.350;2022-12-07T08:57:02;94813.22;;;7.48;66.92
16793;BME280;8513;42.662;23.350;2022-12-07T08:59:28;94811.72;;;7.65;66.70
16793;BME280;8513;42.662;23.350;2022-12-07T09:01:54;94808.13;;;7.66;66.24
16793;BME280;8513;42.662;23.350;2022-12-07T09:04:19;94804.69;;;7.65;66.35
16793;BME280;8513;42.662;23.350;2022-12-07T09:06:45;94800.41;;;7.64;66.26
16793;BME280;8513;42.662;23.350;2022-12-07T09:09:11;94802.91;;;7.46;66.76
16793;BME280;8513;42.662;23.350;2022-12-07T09:11:38;94815.16;;;7.56;66.62
16793;BME280;8513;42.662;23.350;2022-12-07T09:14:04;94811.44;;;7.68;66.60
16793;BME280;8513;42.662;23.350;2022-12-07T09:16:29;94797.09;;;7.72;65.99
16793;BME280;8513;42.662;23.350;2022-12-07T09:18:55;94790.09;;;7.72;66.15
16793;BME280;8513;42.662;23.350;2022-12-07T09:21:21;94781.78;;;7.87;65.98
16793;BME280;8513;42.662;23.350;2022-12-07T09:23:46;94769.81;;;7.84;66.21
16793;BME280;8513;42.662;23.350;2022-12-07T09:26:11;94784.53;;;7.95;65.76
16793;BME280;8513;42.662;23.350;2022-12-07T09:28:37;94784.50;;;8.05;65.26
16793;BME280;8513;42.662;23.350;2022-12-07T09:31:04;94789.06;;;8.03;65.26
16793;BME280;8513;42.662;23.350;2022-12-07T09:33:29;94786.03;;;8.07;65.28
16793;BME280;8513;42.662;23.350;2022-12-07T09:35:55;94782.13;;;8.11;65.02
16793;BME280;8513;42.662;23.350;2022-12-07T09:38:20;94763.91;;;8.29;64.60
16793;BME280;8513;42.662;23.350;2022-12-07T09:40:47;94759.56;;;8.38;64.21
16793;BME280;8513;42.662;23.350;2022-12-07T09:43:18;94759.41;;;8.49;63.72
16793;BME280;8513;42.662;23.350;2022-12-07T09:45:46;94764.81;;;8.48;63.86
16793;BME280;8513;42.662;23.350;2022-12-07T09:48:27;94763.53;;;8.52;63.58
16793;BME280;8513;42.662;23.350;2022-12-07T09:50:55;94760.44;;;8.66;63.24
16793;BME280;8513;42.662;23.350;2022-12-07T09:53:28;94753.41;;;8.67;63.11
16793;BME280;8513;42.662;23.350;2022-12-07T09:55:55;94759.16;;;8.70;63.08
16793;BME280;8513;42.662;23.350;2022-12-07T09:58:23;94758.19;;;8.71;63.27
16793;BME280;8513;42.662;23.350;2022-12-07T10:01:19;94752.09;;;8.80;62.87
16793;BME280;8513;42.662;23.350;2022-12-07T10:06:15;94745.84;;;8.81;62.88
16793;BME280;8513;42.662;23.350;2022-12-07T10:08:41;94748.84;;;8.87;62.69
16793;BME280;8513;42.662;23.350;2022-12-07T10:11:10;94731.94;;;8.99;62.36
16793;BME280;8513;42.662;23.350;2022-12-07T10:13:40;94732.03;;;9.07;62.25
16793;BME280;8513;42.662;23.350;2022-12-07T10:16:07;94729.03;;;9.02;61.98
16793;BME280;8513;42.662;23.350;2022-12-07T10:18:50;94727.97;;;9.31;61.26
16793;BME280;8513;42.662;23.350;2022-12-07T10:21:24;94726.31;;;9.47;60.66
16793;BME280;8513;42.662;23.350;2022-12-07T10:24:03;94726.69;;;9.53;60.46
16793;BME280;8513;42.662;23.350;2022-12-07T10:28:59;94714.50;;;9.69;59.87
16793;BME280;8513;42.662;23.350;2022-12-07T10:31:25;94720.34;;;9.63;59.70
16793;BME280;8513;42.662;23.350;2022-12-07T10:33:55;94698.56;;;9.45;60.10
16793;BME280;8513;42.662;23.350;2022-12-07T10:36:38;94701.69;;;9.48;60.18
16793;BME280;8513;42.662;23.350;2022-12-07T10:41:30;94700.56;;;9.51;60.43
16793;BME280;8513;42.662;23.350;2022-12-07T10:43:57;94699.06;;;9.48;60.17
16793;BME280;8513;42.662;23.350;2022-12-07T10:57:52;94675.63;;;9.47;60.70
16793;BME280;8513;42.662;23.350;2022-12-07T11:00:23;94676.63;;;9.54;60.34
16793;BME280;8513;42.662;23.350;2022-12-07T11:05:31;94656.66;;;9.35;61.22
16793;BME280;8513;42.662;23.350;2022-12-07T11:18:27;94663.19;;;9.49;60.51
16793;BME280;8513;42.662;23.350;2022-12-07T11:31:38;94629.34;;;10.06;58.31
16793;BME280;8513;42.662;23.350;2022-12-07T11:36:48;94621.69;;;10.21;57.67
16793;BME280;8513;42.662;23.350;2022-12-07T11:41:47;94616.66;;;9.93;58.28
16793;BME280;8513;42.662;23.350;2022-12-07T11:45:02;94631.88;;;9.82;59.21
16793;BME280;8513;42.662;23.350;2022-12-07T11:52:56;94620.72;;;9.88;58.89
16793;BME280;8513;42.662;23.350;2022-12-07T12:03:53;94603.41;;;10.46;56.27
16793;BME280;8513;42.662;23.350;2022-12-07T12:06:20;94598.28;;;10.44;56.67
16793;BME280;8513;42.662;23.350;2022-12-07T12:08:59;94600.25;;;10.50;56.50
16793;BME280;8513;42.662;23.350;2022-12-07T12:22:46;94582.69;;;11.33;54.00
16793;BME280;8513;42.662;23.350;2022-12-07T12:25:23;94581.34;;;11.53;53.31
16793;BME280;8513;42.662;23.350;2022-12-07T12:27:50;94571.94;;;11.67;52.64
16793;BME280;8513;42.662;23.350;2022-12-07T12:30:39;94570.91;;;11.93;52.18
16793;BME280;8513;42.662;23.350;2022-12-07T12:33:13;94564.44;;;12.03;51.51
16793;BME280;8513;42.662;23.350;2022-12-07T12:35:40;94553.97;;;11.87;52.30
16793;BME280;8513;42.662;23.350;2022-12-07T12:38:30;94564.91;;;11.43;52.87
16793;BME280;8513;42.662;23.350;2022-12-07T12:40:57;94561.38;;;11.75;52.57
16793;BME280;8513;42.662;23.350;2022-12-07T12:43:51;94546.88;;;11.87;52.18
16793;BME280;8513;42.662;23.350;2022-12-07T12:49:32;94537.47;;;12.47;51.04
16793;BME280;8513;42.662;23.350;2022-12-07T12:52:00;94548.38;;;12.90;49.93
16793;BME280;8513;42.662;23.350;2022-12-07T12:54:34;94552.28;;;13.17;48.93
16793;BME280;8513;42.662;23.350;2022-12-07T13:02:34;94555.75;;;13.56;47.12
16793;BME280;8513;42.662;23.350;2022-12-07T13:15:38;94550.34;;;14.45;45.13
16793;BME280;8513;42.662;23.350;2022-12-07T13:23:22;94561.38;;;14.48;45.19
16793;BME280;8513;42.662;23.350;2022-12-07T13:28:26;94555.75;;;13.85;46.48
16793;BME280;8513;42.662;23.350;2022-12-07T13:31:32;94556.38;;;13.73;47.03
16793;BME280;8513;42.662;23.350;2022-12-07T13:33:59;94556.84;;;13.61;47.78
16793;BME280;8513;42.662;23.350;2022-12-07T13:36:38;94550.91;;;13.44;47.54
16793;BME280;8513;42.662;23.350;2022-12-07T13:39:33;94547.16;;;13.39;47.96
16793;BME280;8513;42.662;23.350;2022-12-07T13:42:08;94541.38;;;13.20;48.54
16793;BME280;8513;42.662;23.350;2022-12-07T13:44:40;94540.16;;;13.08;48.76
16793;BME280;8513;42.662;23.350;2022-12-07T13:47:15;94537.88;;;13.05;48.85
16793;BME280;8513;42.662;23.350;2022-12-07T13:49:51;94539.22;;;13.01;49.49
16793;BME280;8513;42.662;23.350;2022-12-07T13:52:26;94542.56;;;12.95;49.80
16793;BME280;8513;42.662;23.350;2022-12-07T13:55:11;94527.53;;;12.57;50.76
16793;BME280;8513;42.662;23.350;2022-12-07T13:57:39;94530.91;;;12.66;50.43
16793;BME280;8513;42.662;23.350;2022-12-07T14:00:13;94524.53;;;12.61;50.68
16793;BME280;8513;42.662;23.350;2022-12-07T14:05:25;94529.34;;;12.57;50.95
16793;BME280;8513;42.662;23.350;2022-12-07T14:08:00;94530.38;;;12.48;51.29
16793;BME280;8513;42.662;23.350;2022-12-07T14:13:17;94538.66;;;12.45;51.28
16793;BME280;8513;42.662;23.350;2022-12-07T14:15:50;94542.31;;;12.44;51.44
16793;BME280;8513;42.662;23.350;2022-12-07T14:18:34;94543.69;;;12.31;51.72
16793;BME280;8513;42.662;23.350;2022-12-07T14:23:29;94547.63;;;12.04;52.83
16793;BME280;8513;42.662;23.350;2022-12-07T14:26:14;94554.09;;;11.94;53.11
16793;BME280;8513;42.662;23.350;2022-12-07T14:28:42;94549.66;;;11.78;53.75
16793;BME280;8513;42.662;23.350;2022-12-07T14:33:36;94545.97;;;11.56;54.64
16793;BME280;8513;42.662;23.350;2022-12-07T14:36:02;94554.69;;;11.56;54.66
16793;BME280;8513;42.662;23.350;2022-12-07T14:38:27;94546.81;;;11.48;54.80
16793;BME280;8513;42.662;23.350;2022-12-07T14:40:53;94545.69;;;11.42;55.26
16793;BME280;8513;42.662;23.350;2022-12-07T14:43:39;94540.44;;;11.34;55.49
16793;BME280;8513;42.662;23.350;2022-12-07T14:46:05;94543.56;;;11.30;55.68
16793;BME280;8513;42.662;23.350;2022-12-07T14:48:30;94543.22;;;11.24;55.56
16793;BME280;8513;42.662;23.350;2022-12-07T14:50:56;94542.78;;;11.13;56.18
16793;BME280;8513;42.662;23.350;2022-12-07T14:53:28;94545.75;;;11.10;56.13
16793;BME280;8513;42.662;23.350;2022-12-07T14:55:55;94547.03;;;11.06;56.09
16793;BME280;8513;42.662;23.350;2022-12-07T14:58:20;94541.47;;;10.84;56.74
16793;BME280;8513;42.662;23.350;2022-12-07T15:00:46;94552.00;;;10.92;56.73
16793;BME280;8513;42.662;23.350;2022-12-07T15:03:13;94555.28;;;10.86;57.20
16793;BME280;8513;42.662;23.350;2022-12-07T15:05:39;94548.88;;;10.80;57.35
16793;BME280;8513;42.662;23.350;2022-12-07T15:08:05;94553.81;;;10.67;57.74
16793;BME280;8513;42.662;23.350;2022-12-07T15:10:33;94559.53;;;10.71;57.79
16793;BME280;8513;42.662;23.350;2022-12-07T15:12:59;94556.25;;;10.69;57.64
16793;BME280;8513;42.662;23.350;2022-12-07T15:15:50;94564.31;;;10.59;58.18
16793;BME280;8513;42.662;23.350;2022-12-07T15:18:16;94568.59;;;9.67;61.30
16793;BME280;8513;42.662;23.350;2022-12-07T15:20:41;94564.81;;;9.61;61.89
16793;BME280;8513;42.662;23.350;2022-12-07T15:23:07;94578.63;;;9.71;61.30
16793;BME280;8513;42.662;23.350;2022-12-07T15:25:33;94570.84;;;9.88;60.84
16793;BME280;8513;42.662;23.350;2022-12-07T15:27:58;94567.75;;;9.92;60.38
16793;BME280;8513;42.662;23.350;2022-12-07T15:30:24;94571.31;;;9.91;61.05
16793;BME280;8513;42.662;23.350;2022-12-07T15:32:50;94576.13;;;9.96;60.84